createdAt,value
2019-06-10T00:01:53.795Z,99732.76
2019-06-10T00:04:23.991Z,99728.75
2019-06-10T00:06:54.165Z,99724.92
2019-06-10T00:09:24.372Z,99724.92
2019-06-10T00:11:54.561Z,99714.12
2019-06-10T00:14:24.789Z,99712.59
2019-06-10T00:16:54.984Z,99722.02
2019-06-10T00:19:25.172Z,99731.05
2019-06-10T00:21:55.331Z,99731.05
2019-06-10T00:24:25.578Z,99740.93
2019-06-10T00:26:55.821Z,99733.53
2019-06-10T00:29:26.032Z,99733.72
2019-06-10T00:31:56.220Z,99739.04
2019-06-10T00:34:26.401Z,99739.04
2019-06-10T00:36:56.600Z,99752.34
2019-06-10T00:39:26.769Z,99750.64
2019-06-10T00:41:56.984Z,99753.03
2019-06-10T00:44:27.145Z,99753.03
2019-06-10T00:46:58.412Z,99769.61
2019-06-10T00:49:28.593Z,99766.58
2019-06-10T00:52:01.241Z,99766.58
2019-06-10T00:54:31.272Z,99751.31
2019-06-10T00:57:02.895Z,99735.05
2019-06-10T00:59:33.451Z,99740.07
2019-06-10T01:02:05.021Z,99727.61
2019-06-10T01:04:35.557Z,99724.92
2019-06-10T01:07:06.537Z,99724.92
2019-06-10T01:09:36.844Z,99737.32
2019-06-10T01:12:07.030Z,99737.32
2019-06-10T01:14:37.232Z,99737.69
2019-06-10T01:17:07.568Z,99729.59
2019-06-10T01:19:41.372Z,99728.77
2019-06-10T01:22:13.801Z,99730.27
2019-06-10T01:24:43.762Z,99730.27
2019-06-10T01:27:15.085Z,99714.67
2019-06-10T01:29:45.420Z,99712.79
2019-06-10T01:32:15.588Z,99719.16
2019-06-10T01:34:45.804Z,99719.16
2019-06-10T01:37:16.075Z,99709.48
2019-06-10T01:39:46.540Z,99709.48
2019-06-10T01:42:17.204Z,99685.80
2019-06-10T01:44:50.545Z,99685.80
2019-06-10T01:47:21.588Z,99663.77
2019-06-10T01:49:51.932Z,99672.28
2019-06-10T01:52:22.155Z,99653.84
2019-06-10T01:54:52.328Z,99646.62
2019-06-10T01:57:22.510Z,99646.62
2019-06-10T01:59:52.698Z,99657.10
2019-06-10T02:02:24.454Z,99657.10
2019-06-10T02:04:54.979Z,99648.83
2019-06-10T02:07:25.447Z,99648.33
2019-06-10T02:09:55.621Z,99648.33
2019-06-10T02:12:25.817Z,99657.20
2019-06-10T02:14:56.067Z,99662.81
2019-06-10T02:17:26.300Z,99662.81
2019-06-10T02:19:56.534Z,99674.13
2019-06-10T02:22:26.761Z,99678.39
2019-06-10T02:24:56.969Z,99675.55
2019-06-10T02:27:27.141Z,99687.02
2019-06-10T02:29:57.361Z,99705.52
2019-06-10T02:32:32.899Z,99696.67
2019-06-10T02:35:13.101Z,99702.08
2019-06-10T02:37:37.586Z,99692.17
2019-06-10T02:40:04.530Z,99692.17
2019-06-10T02:42:38.976Z,99672.14
2019-06-10T02:45:09.407Z,99669.30
2019-06-10T02:47:39.576Z,99669.98
2019-06-10T02:50:14.208Z,99682.77
2019-06-10T02:52:44.328Z,99691.11
2019-06-10T02:55:16.339Z,99691.11
2019-06-10T02:57:46.365Z,99676.41
2019-06-10T03:00:24.808Z,99687.14
2019-06-10T03:02:49.156Z,99687.14
2019-06-10T03:05:21.464Z,99696.84
2019-06-10T03:07:53.274Z,99696.84
2019-06-10T03:10:29.926Z,99691.34
2019-06-10T03:12:55.015Z,99686.39
2019-06-10T03:15:26.800Z,99691.98
2019-06-10T03:17:57.120Z,99690.10
2019-06-10T03:20:28.423Z,99705.09
2019-06-10T03:22:58.769Z,99733.83
2019-06-10T03:25:28.948Z,99733.83
2019-06-10T03:27:59.140Z,99732.34
2019-06-10T03:30:44.942Z,99709.60
2019-06-10T03:33:04.666Z,99709.60
2019-06-10T03:35:33.171Z,99670.30
2019-06-10T03:38:03.359Z,99656.06
2019-06-10T03:40:33.591Z,99649.44
2019-06-10T03:43:03.795Z,99649.44
2019-06-10T03:45:34.038Z,99638.96
2019-06-10T03:48:04.234Z,99651.39
2019-06-10T03:50:34.461Z,99663.54
2019-06-10T03:53:04.708Z,99660.16
2019-06-10T03:55:34.887Z,99654.02
2019-06-10T03:58:05.089Z,99657.47
2019-06-10T04:00:37.037Z,99643.14
2019-06-10T04:03:07.204Z,99623.58
2019-06-10T04:05:37.439Z,99611.20
2019-06-10T04:08:07.662Z,99614.80
2019-06-10T04:10:37.907Z,99612.52
2019-06-10T04:13:08.098Z,99585.58
2019-06-10T04:15:38.314Z,99585.58
2019-06-10T04:18:08.541Z,99574.45
2019-06-10T04:20:39.808Z,99588.06
2019-06-10T04:23:12.007Z,99609.64
2019-06-10T04:25:43.486Z,99612.98
2019-06-10T04:28:13.698Z,99612.98
2019-06-10T04:30:43.866Z,99600.06
2019-06-10T04:33:14.078Z,99594.09
2019-06-10T04:35:44.282Z,99603.61
2019-06-10T04:38:14.457Z,99603.61
2019-06-10T04:40:44.654Z,99577.77
2019-06-10T04:43:14.842Z,99577.77
2019-06-10T04:45:46.098Z,99567.34
2019-06-10T04:48:16.309Z,99587.40
2019-06-10T04:50:46.639Z,99587.40
2019-06-10T04:53:16.854Z,99572.16
2019-06-10T04:55:47.051Z,99572.16
2019-06-10T04:58:17.211Z,99584.80
2019-06-10T05:00:47.404Z,99589.09
2019-06-10T05:03:18.863Z,99592.67
2019-06-10T05:05:52.410Z,99592.67
2019-06-10T05:08:23.950Z,99595.48
2019-06-10T05:10:53.876Z,99610.66
2019-06-10T05:13:25.578Z,99622.45
2019-06-10T05:15:55.937Z,99635.00
2019-06-10T05:18:27.606Z,99641.95
2019-06-10T05:20:58.791Z,99652.70
2019-06-10T05:23:29.967Z,99652.70
2019-06-10T05:26:02.461Z,99680.37
2019-06-10T05:28:34.172Z,99682.27
2019-06-10T05:31:04.026Z,99688.45
2019-06-10T05:33:34.206Z,99689.60
2019-06-10T05:36:04.405Z,99689.60
2019-06-10T05:38:35.358Z,99691.53
2019-06-10T05:41:05.764Z,99695.52
2019-06-10T05:43:35.952Z,99694.17
2019-06-10T05:46:06.180Z,99694.17
2019-06-10T05:48:36.358Z,99682.58
2019-06-10T05:51:07.063Z,99682.47
2019-06-10T05:53:37.363Z,99687.69
2019-06-10T05:56:07.532Z,99687.69
2019-06-10T05:58:37.744Z,99669.30
2019-06-10T06:01:07.944Z,99678.20
2019-06-10T06:03:38.150Z,99686.94
2019-06-10T06:06:08.347Z,99691.95
2019-06-10T06:08:38.528Z,99685.87
2019-06-10T06:11:08.736Z,99685.87
2019-06-10T06:13:38.951Z,99672.52
2019-06-10T06:16:09.139Z,99673.16
2019-06-10T06:18:39.397Z,99673.30
2019-06-10T06:21:22.575Z,99673.30
2019-06-10T06:23:43.698Z,99678.94
2019-06-10T06:26:16.820Z,99683.23
2019-06-10T06:28:47.114Z,99688.46
2019-06-10T06:31:17.318Z,99681.61
2019-06-10T06:33:47.474Z,99682.29
2019-06-10T06:36:17.720Z,99693.58
2019-06-10T06:38:47.979Z,99693.58
2019-06-10T06:41:18.490Z,99698.82
2019-06-10T06:43:48.877Z,99702.97
2019-06-10T06:46:19.335Z,99711.72
2019-06-10T06:48:52.939Z,99711.72
2019-06-10T06:51:35.956Z,99713.83
2019-06-10T06:53:56.235Z,99721.64
2019-06-10T06:56:26.225Z,99721.64
2019-06-10T06:58:56.743Z,99727.98
2019-06-10T07:01:26.931Z,99725.52
2019-06-10T07:03:57.113Z,99727.88
2019-06-10T07:06:27.313Z,99729.52
2019-06-10T07:09:04.045Z,99737.34
2019-06-10T07:11:32.915Z,99733.39
2019-06-10T07:14:03.687Z,99730.56
2019-06-10T07:16:34.513Z,99730.56
2019-06-10T07:19:05.375Z,99723.58
2019-06-10T07:21:55.775Z,99723.58
2019-06-10T07:24:07.450Z,99704.75
2019-06-10T07:26:42.656Z,99697.77
2019-06-10T07:29:09.570Z,99694.06
2019-06-10T07:31:41.787Z,99694.06
2019-06-10T07:34:12.928Z,99692.34
2019-06-10T07:36:45.219Z,99686.55
2019-06-10T07:39:15.817Z,99686.55
2019-06-10T07:41:47.921Z,99683.22
2019-06-10T07:44:18.385Z,99684.19
2019-06-10T07:46:48.625Z,99689.23
2019-06-10T07:49:18.816Z,99682.19
2019-06-10T07:51:52.321Z,99682.19
2019-06-10T07:54:23.577Z,99687.45
2019-06-10T07:56:54.014Z,99694.32
2019-06-10T07:59:24.398Z,99678.86
2019-06-10T08:01:55.373Z,99678.19
2019-06-10T08:04:25.692Z,99678.19
2019-06-10T08:06:55.883Z,99680.96
2019-06-10T08:09:26.041Z,99680.98
2019-06-10T08:11:56.264Z,99664.41
2019-06-10T08:14:26.507Z,99659.77
2019-06-10T08:16:56.687Z,99656.22
2019-06-10T08:19:34.979Z,99656.22
2019-06-10T08:21:58.794Z,99649.84
2019-06-10T08:24:28.999Z,99645.43
2019-06-10T08:26:59.225Z,99645.43
2019-06-10T08:29:32.839Z,99651.91
2019-06-10T08:32:03.258Z,99644.83
2019-06-10T08:34:33.712Z,99641.56
2019-06-10T08:37:04.593Z,99636.77
2019-06-10T08:39:36.261Z,99636.77
2019-06-10T08:42:06.823Z,99640.83
2019-06-10T08:44:38.846Z,99636.17
2019-06-10T08:47:09.114Z,99643.44
2019-06-10T08:49:39.272Z,99634.11
2019-06-10T08:52:09.472Z,99629.22
2019-06-10T08:54:41.192Z,99639.80
2019-06-10T08:57:12.634Z,99641.95
2019-06-10T08:59:46.628Z,99641.92
2019-06-10T09:02:15.224Z,99632.38
2019-06-10T09:04:48.796Z,99632.38
2019-06-10T09:07:17.322Z,99620.16
2019-06-10T09:09:50.219Z,99603.04
2019-06-10T09:12:30.281Z,99590.00
2019-06-10T09:14:53.125Z,99590.00
2019-06-10T09:17:23.625Z,99589.42
2019-06-10T09:19:54.199Z,99589.42
2019-06-10T09:22:24.694Z,99581.19
2019-06-10T09:24:56.310Z,99578.96
2019-06-10T09:27:27.114Z,99578.96
2019-06-10T09:29:57.579Z,99562.19
2019-06-10T09:32:28.270Z,99551.06
2019-06-10T09:34:58.437Z,99550.26
2019-06-10T09:37:28.657Z,99536.16
2019-06-10T09:39:59.856Z,99510.09
2019-06-10T09:42:33.306Z,99477.30
2019-06-10T09:45:03.935Z,99477.30
2019-06-10T09:47:35.834Z,99448.57
2019-06-10T09:50:06.600Z,99415.41
2019-06-10T09:52:36.929Z,99415.41
2019-06-10T09:55:07.555Z,99399.65
2019-06-10T09:57:37.906Z,99421.67
2019-06-10T10:00:12.303Z,99402.80
2019-06-10T10:02:47.696Z,99384.88
2019-06-10T10:05:15.740Z,99404.81
2019-06-10T10:07:50.754Z,99443.20
2019-06-10T10:10:24.019Z,99472.95
2019-06-10T10:12:55.819Z,99472.95
2019-06-10T10:15:30.793Z,99481.95
2019-06-10T10:17:58.511Z,99483.64
2019-06-10T10:20:28.700Z,99480.43
2019-06-10T10:22:58.903Z,99483.30
2019-06-10T10:25:29.265Z,99490.91
2019-06-10T10:28:03.182Z,99505.89
2019-06-10T10:30:35.214Z,99505.89
2019-06-10T10:33:05.438Z,99514.97
2019-06-10T10:35:35.607Z,99518.98
2019-06-10T10:38:05.804Z,99516.72
2019-06-10T10:40:35.970Z,99515.55
2019-06-10T10:43:23.376Z,99515.55
2019-06-10T10:45:38.098Z,99513.81
2019-06-10T10:48:08.666Z,99513.81
2019-06-10T10:50:38.960Z,99499.36
2019-06-10T10:53:12.689Z,99490.86
2019-06-10T10:55:43.451Z,99480.61
2019-06-10T10:58:13.923Z,99458.30
2019-06-10T11:00:47.850Z,99458.30
2019-06-10T11:03:17.573Z,99438.05
2019-06-10T11:05:49.606Z,99438.05
2019-06-10T11:08:19.631Z,99437.48
2019-06-10T11:10:52.532Z,99412.38
2019-06-10T11:13:22.351Z,99389.45
2019-06-10T11:15:55.382Z,99390.00
2019-06-10T11:18:24.629Z,99377.95
2019-06-10T11:20:55.313Z,99377.95
2019-06-10T11:23:25.537Z,99375.52
2019-06-10T11:25:57.189Z,99375.52
2019-06-10T11:28:32.119Z,99365.82
2019-06-10T11:31:03.816Z,99365.82
2019-06-10T11:33:34.349Z,99370.11
2019-06-10T11:36:04.729Z,99373.67
2019-06-10T11:38:36.011Z,99395.81
2019-06-10T11:41:06.301Z,99395.81
2019-06-10T11:43:36.491Z,99432.03
2019-06-10T11:46:07.984Z,99466.20
2019-06-10T11:48:38.492Z,99463.08
2019-06-10T11:51:08.698Z,99421.59
2019-06-10T11:53:38.881Z,99421.59
2019-06-10T11:56:09.131Z,99425.78
2019-06-10T11:58:39.314Z,99380.72
2019-06-10T12:01:12.173Z,99361.80
2019-06-10T12:03:43.013Z,99361.80
2019-06-10T12:06:13.983Z,99358.39
2019-06-10T12:08:46.605Z,99372.80
2019-06-10T12:11:16.795Z,99372.80
2019-06-10T12:13:46.995Z,99399.50
2019-06-10T12:18:51.663Z,99423.38
2019-06-10T12:21:23.539Z,99423.38
2019-06-10T12:23:57.699Z,99421.42
2019-06-10T12:26:25.974Z,99406.86
2019-06-10T12:28:58.699Z,99406.86
2019-06-10T12:31:28.087Z,99404.25
2019-06-10T12:34:00.407Z,99410.20
2019-06-10T12:36:30.535Z,99410.20
2019-06-10T12:39:10.316Z,99400.97
2019-06-10T12:41:35.570Z,99382.71
2019-06-10T12:44:06.122Z,99382.71
2019-06-10T12:46:36.944Z,99372.05
2019-06-10T12:49:08.666Z,99372.58
2019-06-10T12:51:40.961Z,99379.56
2019-06-10T12:54:13.167Z,99379.56
2019-06-10T12:56:43.363Z,99370.02
2019-06-10T12:59:13.859Z,99367.89
2019-06-10T13:01:45.168Z,99386.72
2019-06-10T13:04:16.428Z,99386.72
2019-06-10T13:06:47.873Z,99401.95
2019-06-10T13:09:18.984Z,99401.23
2019-06-10T13:11:49.213Z,99401.23
2019-06-10T13:14:21.941Z,99415.55
2019-06-10T13:16:52.667Z,99415.55
2019-06-10T13:19:23.242Z,99412.12
2019-06-10T13:21:55.090Z,99412.12
2019-06-10T13:24:26.359Z,99413.80
2019-06-10T13:26:57.261Z,99411.73
2019-06-10T13:29:27.469Z,99414.23
2019-06-10T13:31:58.047Z,99371.80
2019-06-10T13:34:28.329Z,99371.80
2019-06-10T13:37:01.284Z,99364.28
2019-06-10T13:39:32.556Z,99374.56
2019-06-10T13:42:06.183Z,99355.42
2019-06-10T13:44:34.810Z,99387.48
2019-06-10T13:47:08.158Z,99387.48
2019-06-10T13:49:37.356Z,99385.98
2019-06-10T13:52:11.851Z,99395.78
2019-06-10T13:54:42.001Z,99395.78
2019-06-10T13:57:13.713Z,99396.89
2019-06-10T13:59:46.330Z,99384.02
2019-06-10T14:02:18.370Z,99384.02
2019-06-10T14:04:48.574Z,99384.66
2019-06-10T14:07:23.208Z,99383.42
2019-06-10T14:09:53.381Z,99383.69
2019-06-10T14:12:24.546Z,99389.16
2019-06-10T14:14:55.401Z,99396.36
2019-06-10T14:17:25.590Z,99396.36
2019-06-10T14:19:55.777Z,99391.47
2019-06-10T14:22:26.720Z,99357.55
2019-06-10T14:24:56.931Z,99335.80
2019-06-10T14:27:27.113Z,99335.80
2019-06-10T14:29:58.640Z,99330.20
2019-06-10T14:32:32.930Z,99355.13
2019-06-10T14:35:09.337Z,99348.91
2019-06-10T14:37:39.496Z,99344.66
2019-06-10T14:40:13.217Z,99352.09
2019-06-10T14:42:42.910Z,99369.59
2019-06-10T14:45:16.560Z,99369.59
2019-06-10T14:47:47.127Z,99379.03
2019-06-10T14:50:18.129Z,99379.03
2019-06-10T14:52:49.964Z,99377.31
2019-06-10T14:55:20.160Z,99364.55
2019-06-10T14:57:50.319Z,99364.55
2019-06-10T15:00:23.589Z,99361.33
2019-06-10T15:02:54.142Z,99349.83
2019-06-10T15:05:25.524Z,99318.86
2019-06-10T15:07:56.026Z,99295.36
2019-06-10T15:10:26.442Z,99277.23
2019-06-10T15:12:58.287Z,99281.89
2019-06-10T15:15:32.906Z,99281.89
2019-06-10T15:18:02.971Z,99296.94
2019-06-10T15:20:33.312Z,99302.41
2019-06-10T15:23:03.833Z,99302.03
2019-06-10T15:25:49.233Z,99308.92
2019-06-10T15:28:08.110Z,99308.92
2019-06-10T15:30:39.354Z,99282.80
2019-06-10T15:33:12.957Z,99282.80
2019-06-10T15:35:44.229Z,99274.33
2019-06-10T15:38:16.804Z,99285.94
2019-06-10T15:40:48.778Z,99285.94
2019-06-10T15:43:20.779Z,99305.78
2019-06-10T15:45:53.766Z,99329.98
2019-06-10T15:48:26.492Z,99333.98
2019-06-10T15:50:56.676Z,99336.40
2019-06-10T15:53:27.169Z,99336.40
2019-06-10T15:56:22.475Z,99336.53
2019-06-10T15:58:29.271Z,99331.42
2019-06-10T16:00:59.451Z,99326.83
2019-06-10T16:03:29.652Z,99334.25
2019-06-10T16:06:02.913Z,99334.25
2019-06-10T16:08:35.087Z,99330.84
2019-06-10T16:11:06.116Z,99339.09
2019-06-10T16:13:36.465Z,99346.53
2019-06-10T16:16:06.693Z,99340.55
2019-06-10T16:18:37.124Z,99340.94
2019-06-10T16:21:12.222Z,99338.49
2019-06-10T16:23:43.008Z,99338.49
2019-06-10T16:26:16.249Z,99342.73
2019-06-10T16:28:46.501Z,99355.14
2019-06-10T16:31:16.790Z,99352.31
2019-06-10T16:33:49.423Z,99352.31
2019-06-10T16:36:21.161Z,99353.53
2019-06-10T16:38:52.990Z,99339.44
2019-06-10T16:41:26.448Z,99324.50
2019-06-10T16:43:57.418Z,99324.50
2019-06-10T16:46:28.969Z,99312.48
2019-06-10T16:48:59.325Z,99327.56
2019-06-10T16:51:29.953Z,99342.49
2019-06-10T16:54:02.283Z,99342.49
2019-06-10T16:56:33.563Z,99346.27
2019-06-10T16:59:04.924Z,99344.06
2019-06-10T17:01:38.195Z,99344.06
2019-06-10T17:04:08.401Z,99349.29
2019-06-10T17:06:38.833Z,99344.92
2019-06-10T17:09:09.238Z,99346.61
2019-06-10T17:11:39.644Z,99346.61
2019-06-10T17:14:12.385Z,99345.55
2019-06-10T17:16:41.971Z,99347.59
2019-06-10T17:19:14.256Z,99347.21
2019-06-10T17:21:44.073Z,99356.80
2019-06-10T17:24:14.645Z,99356.80
2019-06-10T17:26:45.053Z,99354.80
2019-06-10T17:29:15.258Z,99333.19
2019-06-10T17:31:45.472Z,99333.19
2019-06-10T17:34:16.640Z,99330.53
2019-06-10T17:36:46.873Z,99339.36
2019-06-10T17:39:18.188Z,99339.05
2019-06-10T17:41:48.427Z,99339.05
2019-06-10T17:44:18.647Z,99346.53
2019-06-10T17:46:48.830Z,99340.22
2019-06-10T17:49:22.609Z,99328.45
2019-06-10T17:51:52.562Z,99328.98
2019-06-10T17:54:24.086Z,99328.98
2019-06-10T17:56:55.011Z,99316.38
2019-06-10T17:59:25.311Z,99321.66
2019-06-10T18:01:58.065Z,99321.66
2019-06-10T18:04:29.336Z,99334.20
2019-06-10T18:07:02.127Z,99334.20
2019-06-10T18:09:34.680Z,99336.27
2019-06-10T18:12:03.417Z,99336.27
2019-06-10T18:14:36.296Z,99347.16
2019-06-10T18:17:07.085Z,99347.16
2019-06-10T18:19:37.592Z,99348.55
2019-06-10T18:22:07.827Z,99348.55
2019-06-10T18:24:39.685Z,99351.86
2019-06-10T18:27:09.886Z,99349.08
2019-06-10T18:29:42.653Z,99351.35
2019-06-10T18:32:13.655Z,99341.42
2019-06-10T18:34:45.473Z,99324.41
2019-06-10T18:37:17.425Z,99318.16
2019-06-10T18:39:52.112Z,99332.48
2019-06-10T18:42:23.377Z,99335.31
2019-06-10T18:44:54.384Z,99328.77
2019-06-10T18:47:25.155Z,99328.77
2019-06-10T18:49:56.328Z,99352.78
2019-06-10T18:52:26.826Z,99341.98
2019-06-10T18:55:08.381Z,99341.98
2019-06-10T18:57:39.278Z,99333.00
2019-06-10T19:00:14.922Z,99333.00
2019-06-10T19:02:47.129Z,99332.02
2019-06-10T19:05:22.433Z,99327.03
2019-06-10T19:07:52.964Z,99319.03
2019-06-10T19:10:23.313Z,99318.33
2019-06-10T19:12:53.491Z,99315.77
2019-06-10T19:15:24.871Z,99315.77
2019-06-10T19:17:55.590Z,99321.69
2019-06-10T19:20:27.164Z,99312.28
2019-06-10T19:22:57.352Z,99312.28
2019-06-10T19:25:27.852Z,99296.28
2019-06-10T19:28:01.706Z,99296.28
2019-06-10T19:30:37.079Z,99293.89
2019-06-10T19:33:07.958Z,99288.78
2019-06-10T19:35:38.257Z,99290.23
2019-06-10T19:38:09.676Z,99290.23
2019-06-10T19:40:40.034Z,99296.50
2019-06-10T19:43:12.273Z,99304.85
2019-06-10T19:45:42.920Z,99304.85
2019-06-10T19:48:13.135Z,99298.58
2019-06-10T19:50:49.752Z,99299.91
2019-06-10T19:53:15.233Z,99311.05
2019-06-10T19:55:46.119Z,99324.09
2019-06-10T19:58:16.418Z,99317.23
2019-06-10T20:00:51.025Z,99317.23
2019-06-10T20:03:18.799Z,99315.87
2019-06-10T20:05:49.366Z,99319.57
2019-06-10T20:08:19.588Z,99328.68
2019-06-10T20:10:53.218Z,99328.68
2019-06-10T20:13:25.404Z,99319.09
2019-06-10T20:15:56.359Z,99319.09
2019-06-10T20:18:26.902Z,99331.56
2019-06-10T20:20:58.323Z,99330.20
2019-06-10T20:23:44.571Z,99317.13
2019-06-10T20:26:14.692Z,99317.13
2019-06-10T20:28:46.704Z,99291.94
2019-06-10T20:31:16.784Z,99291.94
2019-06-10T20:33:47.867Z,99298.38
2019-06-10T20:36:23.310Z,99291.00
2019-06-10T20:38:53.351Z,99292.44
2019-06-10T20:41:25.155Z,99293.27
2019-06-10T20:43:56.671Z,99293.27
2019-06-10T20:46:27.426Z,99284.34
2019-06-10T20:48:57.632Z,99280.11
2019-06-10T20:51:27.810Z,99250.13
2019-06-10T20:53:58.072Z,99266.12
2019-06-10T20:56:28.278Z,99260.17
2019-06-10T20:58:58.466Z,99265.95
2019-06-10T21:01:28.999Z,99280.34
2019-06-10T21:03:59.257Z,99284.95
2019-06-10T21:06:29.449Z,99296.19
2019-06-10T21:08:59.708Z,99296.19
2019-06-10T21:11:32.223Z,99311.91
2019-06-10T21:14:04.133Z,99322.40
2019-06-10T21:16:35.743Z,99334.12
2019-06-10T21:19:06.886Z,99343.45
2019-06-10T21:21:37.469Z,99343.45
2019-06-10T21:24:08.013Z,99348.17
2019-06-10T21:26:38.649Z,99338.48
2019-06-10T21:29:12.754Z,99312.42
2019-06-10T21:31:45.301Z,99290.90
2019-06-10T21:34:14.903Z,99290.90
2019-06-10T21:36:45.284Z,99279.96
2019-06-10T21:39:15.648Z,99277.34
2019-06-10T21:41:47.090Z,99273.28
2019-06-10T21:44:17.754Z,99272.23
2019-06-10T21:46:48.780Z,99256.80
2019-06-10T21:49:20.227Z,99270.47
2019-06-10T21:51:54.302Z,99270.47
2019-06-10T21:54:22.540Z,99270.62
2019-06-10T21:56:55.392Z,99270.62
2019-06-10T21:59:24.854Z,99268.56
2019-06-10T22:01:57.522Z,99262.70
2019-06-10T22:04:28.529Z,99244.82
2019-06-10T22:06:59.440Z,99244.82
2019-06-10T22:09:30.226Z,99243.09
2019-06-10T22:12:02.916Z,99241.05
2019-06-10T22:14:38.156Z,99228.67
2019-06-10T22:17:14.807Z,99232.38
2019-06-10T22:19:46.579Z,99231.15
2019-06-10T22:22:17.620Z,99231.15
2019-06-10T22:24:53.622Z,99232.38
2019-06-10T22:27:24.228Z,99218.23
2019-06-10T22:29:56.932Z,99214.64
2019-06-10T22:32:27.252Z,99224.31
2019-06-10T22:34:57.616Z,99222.52
2019-06-10T22:37:27.803Z,99222.98
2019-06-10T22:39:59.523Z,99212.30
2019-06-10T22:42:32.773Z,99212.30
2019-06-10T22:45:04.175Z,99210.97
2019-06-10T22:47:34.903Z,99212.98
2019-06-10T22:50:07.610Z,99222.73
2019-06-10T22:52:37.473Z,99228.66
2019-06-10T22:55:09.566Z,99245.05
2019-06-10T22:57:43.748Z,99242.50
2019-06-10T23:00:13.104Z,99246.59
2019-06-10T23:02:43.939Z,99232.17
2019-06-10T23:05:17.225Z,99232.17
2019-06-10T23:07:46.086Z,99227.89
2019-06-10T23:10:16.265Z,99240.94
2019-06-10T23:12:46.485Z,99240.94
2019-06-10T23:15:16.661Z,99286.23
2019-06-10T23:17:46.875Z,99286.23
2019-06-10T23:20:17.078Z,99331.83
2019-06-10T23:22:47.254Z,99331.83
2019-06-10T23:25:17.462Z,99325.52
2019-06-10T23:27:47.655Z,99325.52
2019-06-10T23:30:17.902Z,99303.23
2019-06-10T23:32:48.066Z,99303.23
2019-06-10T23:35:18.279Z,99304.55
2019-06-10T23:37:48.491Z,99320.52
2019-06-10T23:40:18.706Z,99308.29
2019-06-10T23:42:48.947Z,99293.56
2019-06-10T23:45:19.158Z,99293.56
2019-06-10T23:47:52.212Z,99278.02
2019-06-10T23:50:22.561Z,99255.48
2019-06-10T23:52:55.884Z,99241.61
2019-06-10T23:55:24.905Z,99230.02
2019-06-10T23:57:56.205Z,99233.24
